Airfield :







YOU CAN JOIN US ON...

 
LOGIN :

Register | Disclaimer

   EN    FR    IT 

 









Legend :    VFR   Marginal VFR   IFR   Intensive IFR   Very Intensive IFR
Visi :
Ceiling :
>= 8 km
>= 3000ft
5 to 8 km
1000 to 3000 ft
1500m to 5 km
500 to 1000 ft
800 to 1500m
200 to 500 ft
< 800m
< 200 ft
Symbols :   Thunderstorms  Fog  Heavy snow  Heavy precipitations  Wind > 20 kt






- Airport Elevation : 129 ft
- IATA code : YVP


CYVP - Kuujjuak

CURRENT METAR :
  • 270200Z 29004KT 15SM -SN BKN017 M26/M28 A3020 RMK SC7 SLP232

EXPIRED METARs :
  • 270100Z 28003KT 15SM -SN BKN018 M26/M29 A3019 RMK SC6 SLP231
  • 270000Z 32009KT 15SM -SN SCT020 M26/M28 A3019 RMK SC3 SLP231

TAF TAF CYVP
Valid from the 27 at 00:00 until the 27 at 12:00 UTC


262338Z 2700/2712 32010KT P6SM SCT020
TEMPO 2700/2708 BKN020
FM270800 22005KT P6SM SCT020 RMK NXT FCST BY 270600Z



MET'MAP, your aeronautical weather chart ! - Copyright ORBIFLY December 2007 - Disclaimer

ORBIFLY MET'MAP TEAM :

Programming & Development : Alexandra Zaïnal
Concept & original design : Baudouin d'Aumeries
Assistance for programming : Marc-Olivier Méhu
Technical & hardware support : Manuel Goepfert

Contact : metmap@orbifly.com




SOURCES & CREDITS :

   NOAA